createdAt,value
2018-11-02T00:01:42.051Z,11.77
2018-11-02T00:04:22.320Z,19.07
2018-11-02T00:06:58.437Z,13.20
2018-11-02T00:09:34.552Z,14.63
2018-11-02T00:12:10.816Z,15.07
2018-11-02T00:14:46.848Z,12.67
2018-11-02T00:17:23.656Z,12.67
2018-11-02T00:19:59.913Z,12.60
2018-11-02T00:22:35.905Z,10.60
2018-11-02T00:25:12.107Z,14.97
2018-11-02T00:27:48.207Z,11.93
2018-11-02T00:30:24.360Z,11.10
2018-11-02T00:33:00.442Z,11.57
2018-11-02T00:35:36.702Z,11.63
2018-11-02T00:38:12.689Z,9.23
2018-11-02T00:40:48.751Z,9.47
2018-11-02T00:43:24.886Z,12.93
2018-11-02T00:46:01.087Z,9.80
2018-11-02T00:48:37.199Z,13.47
2018-11-02T00:51:13.287Z,10.73
2018-11-02T00:53:49.629Z,13.50
2018-11-02T00:56:25.609Z,11.57
2018-11-02T00:59:01.712Z,10.70
2018-11-02T01:01:37.752Z,10.97
2018-11-02T01:04:13.829Z,11.13
2018-11-02T01:06:49.973Z,9.83
2018-11-02T01:09:26.181Z,10.40
2018-11-02T01:12:02.216Z,12.93
2018-11-02T01:14:38.320Z,9.50
2018-11-02T01:17:14.371Z,9.10
2018-11-02T01:19:50.543Z,9.57
2018-11-02T01:22:26.545Z,13.73
2018-11-02T01:25:02.698Z,9.17
2018-11-02T01:27:38.758Z,7.77
2018-11-02T01:30:14.737Z,11.43
2018-11-02T01:32:50.809Z,9.10
2018-11-02T01:35:26.882Z,14.17
2018-11-02T01:38:05.050Z,11.73
2018-11-02T01:40:41.213Z,8.43
2018-11-02T01:43:17.323Z,8.97
2018-11-02T01:45:53.916Z,8.93
2018-11-02T01:48:30.206Z,9.73
2018-11-02T01:51:06.244Z,10.80
2018-11-02T01:53:42.432Z,10.50
2018-11-02T01:56:18.633Z,11.57
2018-11-02T01:58:54.984Z,9.20
2018-11-02T02:01:31.120Z,12.40
2018-11-02T02:04:07.624Z,11.90
2018-11-02T02:06:43.733Z,9.33
2018-11-02T02:09:19.786Z,9.00
2018-11-02T02:11:55.696Z,10.17
2018-11-02T02:14:31.919Z,8.50
2018-11-02T02:17:08.003Z,11.60
2018-11-02T02:19:44.083Z,11.13
2018-11-02T02:22:20.316Z,9.00
2018-11-02T02:24:56.483Z,9.70
2018-11-02T02:27:38.317Z,9.87
2018-11-02T02:30:15.090Z,11.27
2018-11-02T02:32:51.160Z,10.53
2018-11-02T02:35:27.243Z,7.73
2018-11-02T02:38:03.490Z,6.93
2018-11-02T02:40:39.514Z,9.17
2018-11-02T02:43:15.681Z,8.90
2018-11-02T02:45:51.768Z,7.83
2018-11-02T02:48:27.695Z,12.77
2018-11-02T02:51:03.918Z,8.43
2018-11-02T02:53:39.911Z,8.43
2018-11-02T02:56:16.074Z,9.93
2018-11-02T02:58:52.441Z,14.60
2018-11-02T03:01:28.559Z,8.77
2018-11-02T03:04:04.713Z,10.17
2018-11-02T03:06:40.902Z,7.63
2018-11-02T03:09:16.913Z,6.80
2018-11-02T03:11:53.411Z,7.33
2018-11-02T03:14:29.547Z,5.70
2018-11-02T03:17:05.773Z,7.57
2018-11-02T03:19:41.842Z,6.67
2018-11-02T03:22:18.023Z,5.40
2018-11-02T03:24:53.967Z,4.97
2018-11-02T03:27:30.096Z,6.63
2018-11-02T03:30:07.429Z,6.00
2018-11-02T03:32:43.515Z,6.33
2018-11-02T03:35:19.564Z,5.80
2018-11-02T03:37:55.634Z,6.93
2018-11-02T03:40:31.680Z,5.73
2018-11-02T03:43:07.793Z,6.30
2018-11-02T03:45:43.931Z,5.50
2018-11-02T03:48:20.028Z,6.10
2018-11-02T03:50:56.158Z,6.43
2018-11-02T03:53:32.450Z,6.37
2018-11-02T03:56:08.501Z,8.03
2018-11-02T03:58:44.665Z,6.97
2018-11-02T04:01:20.735Z,8.77
2018-11-02T04:03:56.886Z,6.70
2018-11-02T04:06:32.917Z,9.20
2018-11-02T04:09:10.213Z,9.10
2018-11-02T04:11:46.287Z,9.63
2018-11-02T04:14:22.480Z,8.23
2018-11-02T04:16:58.638Z,8.63
2018-11-02T04:19:34.599Z,6.63
2018-11-02T04:22:10.835Z,7.10
2018-11-02T04:24:46.957Z,9.63
2018-11-02T04:27:24.245Z,7.47
2018-11-02T04:30:00.373Z,10.10
2018-11-02T04:32:36.381Z,8.20
2018-11-02T04:35:12.445Z,7.57
2018-11-02T04:37:48.450Z,12.13
2018-11-02T04:40:24.599Z,8.20
2018-11-02T04:43:00.824Z,7.67
2018-11-02T04:45:39.569Z,12.80
2018-11-02T04:48:15.576Z,6.80
2018-11-02T04:50:51.836Z,8.00
2018-11-02T04:53:27.851Z,12.87
2018-11-02T04:56:04.008Z,9.70
2018-11-02T04:58:40.176Z,8.17
2018-11-02T05:01:16.278Z,11.30
2018-11-02T05:03:52.334Z,9.00
2018-11-02T05:06:28.706Z,8.50
2018-11-02T05:09:07.013Z,9.30
2018-11-02T05:11:43.096Z,10.70
2018-11-02T05:14:19.212Z,9.07
2018-11-02T05:16:55.298Z,9.00
2018-11-02T05:19:31.531Z,11.03
2018-11-02T05:22:07.412Z,13.23
2018-11-02T05:24:43.593Z,8.53
2018-11-02T05:27:19.694Z,9.87
2018-11-02T05:29:55.728Z,12.57
2018-11-02T05:32:31.987Z,9.90
2018-11-02T05:35:08.037Z,9.43
2018-11-02T05:37:43.948Z,11.87
2018-11-02T05:40:20.136Z,19.30
2018-11-02T05:42:56.272Z,13.90
2018-11-02T05:45:32.509Z,8.37
2018-11-02T05:48:08.522Z,14.37
2018-11-02T05:50:44.648Z,11.40
2018-11-02T05:53:20.722Z,13.43
2018-11-02T05:55:56.756Z,12.37
2018-11-02T05:58:33.069Z,12.13
2018-11-02T06:01:09.280Z,11.57
2018-11-02T06:03:45.539Z,14.20
2018-11-02T06:06:21.628Z,12.73
2018-11-02T06:08:57.857Z,14.30
2018-11-02T06:11:34.055Z,13.37
2018-11-02T06:14:10.151Z,10.63
2018-11-02T06:16:47.189Z,12.30
2018-11-02T06:19:23.072Z,11.67
2018-11-02T06:21:59.361Z,14.03
2018-11-02T06:24:35.417Z,14.53
2018-11-02T06:27:11.449Z,14.63
2018-11-02T06:29:47.821Z,14.07
2018-11-02T06:32:24.117Z,10.80
2018-11-02T06:35:00.227Z,15.77
2018-11-02T06:37:36.456Z,15.20
2018-11-02T06:40:12.464Z,15.07
2018-11-02T06:42:48.592Z,12.10
2018-11-02T06:45:26.808Z,11.73
2018-11-02T06:48:03.305Z,15.33
2018-11-02T06:50:40.129Z,13.60
2018-11-02T06:53:16.162Z,12.57
2018-11-02T06:55:52.346Z,12.30
2018-11-02T06:58:28.634Z,17.07
2018-11-02T07:01:05.133Z,13.60
2018-11-02T07:03:41.802Z,13.90
2018-11-02T07:06:17.920Z,12.37
2018-11-02T07:08:54.013Z,11.90
2018-11-02T07:11:30.173Z,12.87
2018-11-02T07:14:06.643Z,14.10
2018-11-02T07:16:43.689Z,12.30
2018-11-02T07:19:19.661Z,9.30
2018-11-02T07:21:55.824Z,10.57
2018-11-02T07:24:32.066Z,9.30
2018-11-02T07:27:08.085Z,7.23
2018-11-02T07:29:44.296Z,9.40
2018-11-02T07:32:20.929Z,7.33
2018-11-02T07:34:57.161Z,7.80
2018-11-02T07:37:33.256Z,7.13
2018-11-02T07:40:10.802Z,6.57
2018-11-02T07:42:46.892Z,6.67
2018-11-02T07:45:22.964Z,6.37
2018-11-02T07:47:59.169Z,7.07
2018-11-02T07:50:35.432Z,6.50
2018-11-02T07:53:11.444Z,5.10
2018-11-02T07:55:47.572Z,7.90
2018-11-02T07:58:23.810Z,4.97
2018-11-02T08:00:59.896Z,5.80
2018-11-02T08:03:36.102Z,8.23
2018-11-02T08:06:12.094Z,5.87
2018-11-02T08:08:48.467Z,5.20
2018-11-02T08:11:24.680Z,6.17
2018-11-02T08:14:00.704Z,4.80
2018-11-02T08:16:37.003Z,5.40
2018-11-02T08:19:12.916Z,4.50
2018-11-02T08:21:48.952Z,4.50
2018-11-02T08:24:24.962Z,3.97
2018-11-02T08:27:02.968Z,3.70
2018-11-02T08:29:38.999Z,4.00
2018-11-02T08:32:15.205Z,3.67
2018-11-02T08:34:51.434Z,5.73
2018-11-02T08:37:27.380Z,9.80
2018-11-02T08:40:03.433Z,5.47
2018-11-02T08:42:39.628Z,6.47
2018-11-02T08:45:15.614Z,5.37
2018-11-02T08:47:51.755Z,5.00
2018-11-02T08:50:27.960Z,3.90
2018-11-02T08:53:04.448Z,4.67
2018-11-02T08:55:40.730Z,4.90
2018-11-02T08:58:16.800Z,5.07
2018-11-02T09:00:53.092Z,3.93
2018-11-02T09:03:29.228Z,4.30
2018-11-02T09:06:05.500Z,4.87
2018-11-02T09:08:41.504Z,6.63
2018-11-02T09:11:17.708Z,4.13
2018-11-02T09:13:53.877Z,5.90
2018-11-02T09:16:29.862Z,4.20
2018-11-02T09:19:06.286Z,5.17
2018-11-02T09:21:42.543Z,4.50
2018-11-02T09:24:18.626Z,4.53
2018-11-02T09:26:54.646Z,3.83
2018-11-02T09:29:31.258Z,4.03
2018-11-02T09:32:07.692Z,3.93
2018-11-02T09:34:43.808Z,4.50
2018-11-02T09:37:20.512Z,4.20
2018-11-02T09:39:56.662Z,3.27
2018-11-02T09:42:32.824Z,3.70
2018-11-02T09:45:11.858Z,8.77
2018-11-02T09:47:47.763Z,4.20
2018-11-02T09:50:24.608Z,4.07
2018-11-02T09:53:00.754Z,3.80
2018-11-02T09:55:36.763Z,4.73
2018-11-02T09:58:12.779Z,4.57
2018-11-02T10:00:49.029Z,3.30
2018-11-02T10:03:24.978Z,4.30
2018-11-02T10:06:01.293Z,4.27
2018-11-02T10:08:37.483Z,7.10
2018-11-02T10:11:13.480Z,4.70
2018-11-02T10:13:49.489Z,5.47
2018-11-02T10:16:26.698Z,3.80
2018-11-02T10:19:02.724Z,3.20
2018-11-02T10:21:38.916Z,4.77
2018-11-02T10:24:15.121Z,4.87
2018-11-02T10:26:51.155Z,5.17
2018-11-02T10:29:27.417Z,4.43
2018-11-02T10:32:03.453Z,5.10
2018-11-02T10:34:39.784Z,3.93
2018-11-02T10:37:15.841Z,5.33
2018-11-02T10:39:51.919Z,3.57
2018-11-02T10:42:28.746Z,3.73
2018-11-02T10:45:05.395Z,3.63
2018-11-02T10:47:41.636Z,3.90
2018-11-02T10:50:17.701Z,8.50
2018-11-02T10:52:53.956Z,5.50
2018-11-02T10:55:30.163Z,4.43
2018-11-02T10:58:06.551Z,5.00
2018-11-02T11:00:48.190Z,3.20
2018-11-02T11:03:24.235Z,3.40
2018-11-02T11:06:00.306Z,4.50
2018-11-02T11:08:36.386Z,3.80
2018-11-02T11:11:12.676Z,4.33
2018-11-02T11:13:48.886Z,3.70
2018-11-02T11:16:24.792Z,4.53
2018-11-02T11:19:00.933Z,5.47
2018-11-02T11:21:37.687Z,5.20
2018-11-02T11:24:13.817Z,3.97
2018-11-02T11:26:50.012Z,3.83
2018-11-02T11:29:26.290Z,4.00
2018-11-02T11:32:02.406Z,4.20
2018-11-02T11:34:38.480Z,3.13
2018-11-02T11:37:14.562Z,3.70
2018-11-02T11:39:50.755Z,2.83
2018-11-02T11:42:26.945Z,4.93
2018-11-02T11:45:02.997Z,3.57
2018-11-02T11:47:39.392Z,3.43
2018-11-02T11:50:23.974Z,3.47
2018-11-02T11:53:00.157Z,1.50
2018-11-02T11:55:36.365Z,2.60
2018-11-02T11:58:12.563Z,2.77
2018-11-02T12:00:48.705Z,1.70
2018-11-02T12:03:25.778Z,2.13
2018-11-02T12:06:01.939Z,2.33
2018-11-02T12:08:38.064Z,2.97
2018-11-02T12:11:14.357Z,3.77
2018-11-02T12:13:51.088Z,2.50
2018-11-02T12:16:27.188Z,2.80
2018-11-02T12:19:03.330Z,3.30
2018-11-02T12:21:39.382Z,2.43
2018-11-02T12:24:15.574Z,3.10
2018-11-02T12:26:52.824Z,3.67
2018-11-02T12:29:28.921Z,2.63
2018-11-02T12:32:05.004Z,3.93
2018-11-02T12:34:41.047Z,3.80
2018-11-02T12:37:17.275Z,3.97
2018-11-02T12:39:53.174Z,2.10
2018-11-02T12:42:30.275Z,3.70
2018-11-02T12:45:07.864Z,3.57
2018-11-02T12:47:45.487Z,3.60
2018-11-02T12:50:24.907Z,3.27
2018-11-02T12:53:01.085Z,2.23
2018-11-02T12:55:37.439Z,3.13
2018-11-02T12:58:14.386Z,2.50
2018-11-02T13:00:50.403Z,2.23
2018-11-02T13:03:26.476Z,2.77
2018-11-02T13:06:02.665Z,2.53
2018-11-02T13:08:38.809Z,2.13
2018-11-02T13:11:14.939Z,1.70
2018-11-02T13:13:52.245Z,2.33
2018-11-02T13:16:28.348Z,2.20
2018-11-02T13:19:04.536Z,2.10
2018-11-02T13:21:40.689Z,2.30
2018-11-02T13:24:16.705Z,2.10
2018-11-02T13:26:53.039Z,2.50
2018-11-02T13:29:29.080Z,2.17
2018-11-02T13:32:05.311Z,2.90
2018-11-02T13:34:41.356Z,2.53
2018-11-02T13:37:17.837Z,2.50
2018-11-02T13:39:53.791Z,1.97
2018-11-02T13:42:29.965Z,1.93
2018-11-02T13:45:07.242Z,3.70
2018-11-02T13:47:44.792Z,2.97
2018-11-02T13:50:20.811Z,2.90
2018-11-02T13:52:56.880Z,2.50
2018-11-02T13:55:32.881Z,2.87
2018-11-02T13:58:08.871Z,2.73
2018-11-02T14:00:45.017Z,2.03
2018-11-02T14:03:21.203Z,2.33
2018-11-02T14:05:57.347Z,3.03
2018-11-02T14:08:33.383Z,2.40
2018-11-02T14:11:09.501Z,2.20
2018-11-02T14:13:45.768Z,2.40
2018-11-02T14:16:22.130Z,2.87
2018-11-02T14:18:58.377Z,2.77
2018-11-02T14:21:36.645Z,2.23
2018-11-02T14:24:12.771Z,2.57
2018-11-02T14:26:49.145Z,3.70
2018-11-02T14:29:25.283Z,2.20
2018-11-02T14:32:01.402Z,2.00
2018-11-02T14:34:37.644Z,2.20
2018-11-02T14:37:13.821Z,1.90
2018-11-02T14:39:50.488Z,2.87
2018-11-02T14:42:26.624Z,2.80
2018-11-02T14:45:02.605Z,2.10
2018-11-02T14:47:38.712Z,3.17
2018-11-02T14:50:15.013Z,2.10
2018-11-02T14:52:50.989Z,2.27
2018-11-02T14:55:27.372Z,2.30
2018-11-02T14:58:03.408Z,1.40
2018-11-02T15:00:39.492Z,1.83
2018-11-02T15:03:15.658Z,2.83
2018-11-02T15:05:51.763Z,4.20
2018-11-02T15:08:27.886Z,2.70
2018-11-02T15:11:04.513Z,1.33
2018-11-02T15:13:40.606Z,2.17
2018-11-02T15:16:16.635Z,4.13
2018-11-02T15:18:53.092Z,3.67
2018-11-02T15:21:29.345Z,2.57
2018-11-02T15:24:06.766Z,4.07
2018-11-02T15:26:43.023Z,3.60
2018-11-02T15:29:19.188Z,6.00
2018-11-02T15:31:55.234Z,4.70
2018-11-02T15:34:31.357Z,5.70
2018-11-02T15:37:07.507Z,4.63
2018-11-02T15:39:43.663Z,5.47
2018-11-02T15:42:19.731Z,5.27
2018-11-02T15:44:55.944Z,6.13
2018-11-02T15:47:32.100Z,4.93
2018-11-02T15:50:09.204Z,4.80
2018-11-02T15:52:45.372Z,7.77
2018-11-02T15:55:21.345Z,6.30
2018-11-02T15:57:57.509Z,5.67
2018-11-02T16:00:33.726Z,9.33
2018-11-02T16:03:09.758Z,8.70
2018-11-02T16:05:46.053Z,5.60
2018-11-02T16:08:22.379Z,5.23
2018-11-02T16:10:58.742Z,7.40
2018-11-02T16:13:36.109Z,9.17
2018-11-02T16:16:12.200Z,5.97
2018-11-02T16:18:48.360Z,5.87
2018-11-02T16:21:31.420Z,6.70
2018-11-02T16:24:08.536Z,5.00
2018-11-02T16:26:44.959Z,6.97
2018-11-02T16:29:21.148Z,4.50
2018-11-02T16:31:57.407Z,4.90
2018-11-02T16:34:33.620Z,4.40
2018-11-02T16:37:09.671Z,2.77
2018-11-02T16:39:46.089Z,4.30
2018-11-02T16:42:22.226Z,6.80
2018-11-02T16:44:58.509Z,2.80
2018-11-02T16:47:34.631Z,2.23
2018-11-02T16:50:11.845Z,1.90
2018-11-02T16:52:49.090Z,4.73
2018-11-02T16:55:25.258Z,3.17
2018-11-02T16:58:01.793Z,4.83
2018-11-02T17:00:37.929Z,3.93
2018-11-02T17:03:15.216Z,1.70
2018-11-02T17:05:51.714Z,2.27
2018-11-02T17:08:27.930Z,4.93
2018-11-02T17:11:04.157Z,3.23
2018-11-02T17:13:41.696Z,2.57
2018-11-02T17:16:17.819Z,2.90
2018-11-02T17:18:53.884Z,2.53
2018-11-02T17:21:30.083Z,3.10
2018-11-02T17:24:06.428Z,4.10
2018-11-02T17:26:42.579Z,3.33
2018-11-02T17:29:19.292Z,3.47
2018-11-02T17:31:55.510Z,4.00
2018-11-02T17:34:32.265Z,3.73
2018-11-02T17:37:08.766Z,7.20
2018-11-02T17:39:45.175Z,3.83
2018-11-02T17:42:26.450Z,2.93
2018-11-02T17:45:02.631Z,4.80
2018-11-02T17:47:40.350Z,4.87
2018-11-02T17:50:17.291Z,3.60
2018-11-02T17:52:53.530Z,3.90
2018-11-02T17:55:29.690Z,3.17
2018-11-02T17:58:05.940Z,3.53
2018-11-02T18:00:42.040Z,3.73
2018-11-02T18:03:19.162Z,4.27
2018-11-02T18:05:56.439Z,3.40
2018-11-02T18:08:32.530Z,3.20
2018-11-02T18:11:08.691Z,4.17
2018-11-02T18:13:46.080Z,5.07
2018-11-02T18:16:22.341Z,4.43
2018-11-02T18:18:58.726Z,4.03
2018-11-02T18:21:34.856Z,3.73
2018-11-02T18:24:14.266Z,4.67
2018-11-02T18:26:50.452Z,4.03
2018-11-02T18:29:26.852Z,5.80
2018-11-02T18:32:04.093Z,5.13
2018-11-02T18:34:40.576Z,6.20
2018-11-02T18:37:16.936Z,6.57
2018-11-02T18:39:55.311Z,22.40
2018-11-02T18:42:31.761Z,7.73
2018-11-02T18:45:10.737Z,6.83
2018-11-02T18:47:49.114Z,7.80
2018-11-02T18:50:25.769Z,7.30
2018-11-02T18:53:01.930Z,9.00
2018-11-02T18:55:38.344Z,7.17
2018-11-02T18:58:14.535Z,11.80
2018-11-02T19:00:50.524Z,12.37
2018-11-02T19:03:26.679Z,8.20
2018-11-02T19:06:02.834Z,8.13
2018-11-02T19:08:38.970Z,7.27
2018-11-02T19:11:15.112Z,8.07
2018-11-02T19:13:51.245Z,7.20
2018-11-02T19:16:27.378Z,6.83
2018-11-02T19:19:03.413Z,4.97
2018-11-02T19:23:52.396Z,4.50
2018-11-02T19:26:28.484Z,5.50
2018-11-02T19:29:05.075Z,5.03
2018-11-02T19:31:41.251Z,6.30
2018-11-02T19:34:17.494Z,4.60
2018-11-02T19:36:53.543Z,3.13
2018-11-02T19:39:29.619Z,5.53
2018-11-02T19:42:05.623Z,6.30
2018-11-02T19:44:41.730Z,2.60
2018-11-02T19:47:17.843Z,2.97
2018-11-02T19:49:54.137Z,4.23
2018-11-02T19:52:30.330Z,3.53
2018-11-02T19:55:07.437Z,3.90
2018-11-02T19:57:44.494Z,4.30
2018-11-02T20:00:20.682Z,3.57
2018-11-02T20:02:56.836Z,5.03
2018-11-02T20:05:32.987Z,4.43
2018-11-02T20:08:09.346Z,3.27
2018-11-02T20:10:45.500Z,6.13
2018-11-02T20:13:21.891Z,3.57
2018-11-02T20:15:58.055Z,6.57
2018-11-02T20:18:34.157Z,4.83
2018-11-02T20:21:10.204Z,4.37
2018-11-02T20:23:46.408Z,6.23
2018-11-02T20:26:22.597Z,3.97
2018-11-02T20:28:58.711Z,7.33
2018-11-02T20:31:35.081Z,2.70
2018-11-02T20:34:11.373Z,3.70
2018-11-02T20:36:47.783Z,3.40
2018-11-02T20:39:24.162Z,10.90
2018-11-02T20:42:00.553Z,5.27
2018-11-02T20:44:36.879Z,3.60
2018-11-02T20:47:13.079Z,9.63
2018-11-02T20:49:49.171Z,4.37
2018-11-02T20:52:25.355Z,5.90
2018-11-02T20:55:01.559Z,4.93
2018-11-02T20:57:38.590Z,4.20
2018-11-02T21:00:16.074Z,4.60
2018-11-02T21:02:52.673Z,4.37
2018-11-02T21:05:28.692Z,4.87
2018-11-02T21:08:05.040Z,4.60
2018-11-02T21:10:41.287Z,6.53
2018-11-02T21:13:17.689Z,5.77
2018-11-02T21:15:54.042Z,4.10
2018-11-02T21:18:30.249Z,3.57
2018-11-02T21:21:06.894Z,4.70
2018-11-02T21:23:42.894Z,5.10
2018-11-02T21:26:19.078Z,4.20
2018-11-02T21:28:55.208Z,3.60
2018-11-02T21:31:31.377Z,5.03
2018-11-02T21:34:07.702Z,7.07
2018-11-02T21:36:43.896Z,3.87
2018-11-02T21:39:20.021Z,4.03
2018-11-02T21:41:56.133Z,5.00
2018-11-02T21:44:33.141Z,7.27
2018-11-02T21:47:09.287Z,5.60
2018-11-02T21:49:45.557Z,5.63
2018-11-02T21:52:21.700Z,4.80
2018-11-02T21:54:57.892Z,5.00
2018-11-02T21:57:34.079Z,7.10
2018-11-02T22:00:13.393Z,6.00
2018-11-02T22:02:49.422Z,4.90
2018-11-02T22:05:25.601Z,5.87
2018-11-02T22:08:01.836Z,5.13
2018-11-02T22:10:38.272Z,5.00
2018-11-02T22:13:21.124Z,5.70
2018-11-02T22:15:57.208Z,5.00
2018-11-02T22:18:33.473Z,5.17
2018-11-02T22:21:09.903Z,5.00
2018-11-02T22:23:46.105Z,6.07
2018-11-02T22:26:22.935Z,12.13
2018-11-02T22:28:59.285Z,4.00
2018-11-02T22:31:35.355Z,4.40
2018-11-02T22:34:11.450Z,7.00
2018-11-02T22:36:47.524Z,8.17
2018-11-02T22:39:23.812Z,5.97
2018-11-02T22:42:00.072Z,4.90
2018-11-02T22:44:36.153Z,4.50
2018-11-02T22:47:12.270Z,8.03
2018-11-02T22:49:48.495Z,4.43
2018-11-02T22:52:24.601Z,4.27
2018-11-02T22:55:00.980Z,6.57
2018-11-02T22:57:36.931Z,3.77
2018-11-02T23:00:16.352Z,5.00
2018-11-02T23:02:52.372Z,2.77
2018-11-02T23:05:28.590Z,3.40
2018-11-02T23:08:04.729Z,3.80
2018-11-02T23:10:40.897Z,3.30
2018-11-02T23:13:17.028Z,3.40
2018-11-02T23:15:53.249Z,4.77
2018-11-02T23:18:29.499Z,4.00
2018-11-02T23:21:05.750Z,6.77
2018-11-02T23:23:41.839Z,3.43
2018-11-02T23:26:18.023Z,3.67
2018-11-02T23:28:54.180Z,5.80
2018-11-02T23:31:30.331Z,3.73
2018-11-02T23:34:06.776Z,3.23
2018-11-02T23:36:42.987Z,3.20
2018-11-02T23:39:19.191Z,3.90
2018-11-02T23:41:55.192Z,3.00
2018-11-02T23:44:31.326Z,4.63
2018-11-02T23:47:07.390Z,5.67
2018-11-02T23:49:43.537Z,3.63
2018-11-02T23:52:19.679Z,3.90
2018-11-02T23:54:55.955Z,3.33
2018-11-02T23:57:32.014Z,3.27
